ISR668 OMDB-LLBG
Flight info
| Callsign | ISR668 |
|---|---|
| Flight time | N/A |
| Altitude | 36000 |
| Route | SENPA N571 ALPOB L768 VATIM/N0445F380 L768 AAR V45 TRF R652 OBROD Q163 GENEX L53 QAA DCT OSAMA DCT RALNA N134 SALAM |
| Aircraft | A320/M-SDE2FGHIJ1LORVWY/SB1 |
Departure
| Time | 2026-04-24 15:06 |
|---|---|
| Airport | Dubai International Airport (OMDB) |
Arrival
| Time | N/A |
|---|---|
| Airport | Ben Gurion International Airport (LLBG) |
| Time | Latitude | Longitude | Altitude | Speed | Heading |
|---|---|---|---|---|---|
| 2026-04-24 14:18 | 25.25553 | 55.34731 | 21 ft | 0 kts | 302° |
| 2026-04-24 14:51 | 25.25549 | 55.34738 | 22 ft | 4 kts | 302° |
| 2026-04-24 14:51 | 25.25535 | 55.34763 | 22 ft | 4 kts | 302° |
| 2026-04-24 14:52 | 25.25522 | 55.34786 | 24 ft | 2 kts | 302° |
| 2026-04-24 14:52 | 25.25508 | 55.34807 | 23 ft | 4 kts | 326° |
| 2026-04-24 14:52 | 25.25484 | 55.34817 | 24 ft | 4 kts | 358° |
| 2026-04-24 14:52 | 25.25457 | 55.34815 | 24 ft | 4 kts | 4° |
| 2026-04-24 14:53 | 25.25433 | 55.34815 | 24 ft | 4 kts | 357° |
| 2026-04-24 14:53 | 25.25427 | 55.34816 | 24 ft | 0 kts | 357° |
| 2026-04-24 14:56 | 25.25444 | 55.34815 | 21 ft | 5 kts | 358° |
| 2026-04-24 14:56 | 25.25486 | 55.34822 | 21 ft | 7 kts | 17° |
| 2026-04-24 14:56 | 25.25536 | 55.34851 | 21 ft | 9 kts | 30° |
| 2026-04-24 14:56 | 25.25596 | 55.34892 | 21 ft | 11 kts | 32° |
| 2026-04-24 14:57 | 25.25669 | 55.34941 | 21 ft | 13 kts | 30° |
| 2026-04-24 14:57 | 25.25755 | 55.34997 | 21 ft | 15 kts | 31° |
| 2026-04-24 14:57 | 25.25853 | 55.35063 | 21 ft | 17 kts | 31° |
| 2026-04-24 14:57 | 25.25963 | 55.35137 | 21 ft | 19 kts | 31° |
| 2026-04-24 14:58 | 25.26083 | 55.35217 | 22 ft | 21 kts | 31° |
| 2026-04-24 14:58 | 25.26126 | 55.35313 | 22 ft | 16 kts | 119° |
| 2026-04-24 14:58 | 25.26064 | 55.35423 | 22 ft | 18 kts | 122° |
| 2026-04-24 14:58 | 25.25995 | 55.35546 | 24 ft | 20 kts | 122° |
| 2026-04-24 14:59 | 25.25920 | 55.35679 | 22 ft | 21 kts | 122° |
| 2026-04-24 14:59 | 25.25838 | 55.35824 | 24 ft | 23 kts | 122° |
| 2026-04-24 14:59 | 25.25750 | 55.35980 | 24 ft | 25 kts | 121° |
| 2026-04-24 14:59 | 25.25668 | 55.36128 | 23 ft | 19 kts | 121° |
| 2026-04-24 15:00 | 25.25599 | 55.36250 | 24 ft | 20 kts | 122° |
| 2026-04-24 15:00 | 25.25522 | 55.36385 | 24 ft | 22 kts | 122° |
| 2026-04-24 15:00 | 25.25439 | 55.36533 | 25 ft | 24 kts | 122° |
| 2026-04-24 15:00 | 25.25349 | 55.36695 | 21 ft | 26 kts | 121° |
| 2026-04-24 15:01 | 25.25261 | 55.36851 | 24 ft | 23 kts | 122° |
| 2026-04-24 15:01 | 25.25172 | 55.37008 | 23 ft | 25 kts | 122° |
| 2026-04-24 15:01 | 25.25082 | 55.37169 | 23 ft | 23 kts | 122° |
| 2026-04-24 15:01 | 25.24995 | 55.37322 | 23 ft | 24 kts | 122° |
| 2026-04-24 15:02 | 25.24903 | 55.37486 | 25 ft | 26 kts | 122° |
| 2026-04-24 15:02 | 25.24804 | 55.37663 | 23 ft | 28 kts | 122° |
| 2026-04-24 15:02 | 25.24717 | 55.37818 | 22 ft | 21 kts | 122° |
| 2026-04-24 15:02 | 25.24673 | 55.37896 | 22 ft | 6 kts | 122° |
| 2026-04-24 15:03 | 25.24662 | 55.37925 | 25 ft | 3 kts | 102° |
| 2026-04-24 15:03 | 25.24665 | 55.37944 | 23 ft | 0 kts | 72° |
| 2026-04-24 15:03 | 25.24671 | 55.37954 | 23 ft | 4 kts | 53° |
| 2026-04-24 15:03 | 25.24689 | 55.37971 | 23 ft | 3 kts | 34° |
| 2026-04-24 15:04 | 25.24713 | 55.37988 | 23 ft | 5 kts | 32° |
| 2026-04-24 15:04 | 25.24749 | 55.38013 | 26 ft | 7 kts | 31° |
| 2026-04-24 15:04 | 25.24793 | 55.38038 | 25 ft | 5 kts | 13° |
| 2026-04-24 15:04 | 25.24811 | 55.38020 | 25 ft | 2 kts | 297° |
| 2026-04-24 15:05 | 25.24819 | 55.38004 | 26 ft | 4 kts | 300° |
| 2026-04-24 15:05 | 25.24878 | 55.37896 | 27 ft | 44 kts | 301° |
| 2026-04-24 15:05 | 25.25152 | 55.37403 | 27 ft | 104 kts | 302° |
| 2026-04-24 15:05 | 25.25614 | 55.36572 | 26 ft | 149 kts | 301° |
| 2026-04-24 15:06 | 25.26215 | 55.35500 | 258 ft | 168 kts | 302° |
| 2026-04-24 15:06 | 25.26822 | 55.34412 | 893 ft | 165 kts | 303° |
| 2026-04-24 15:06 | 25.27419 | 55.33321 | 1522 ft | 167 kts | 304° |
| 2026-04-24 15:06 | 25.28038 | 55.32195 | 1895 ft | 178 kts | 304° |
| 2026-04-24 15:07 | 25.28699 | 55.31004 | 2297 ft | 184 kts | 303° |
| 2026-04-24 15:07 | 25.29358 | 55.29782 | 2709 ft | 188 kts | 295° |
| 2026-04-24 15:07 | 25.29667 | 55.28309 | 2861 ft | 209 kts | 275° |
| 2026-04-24 15:07 | 25.29789 | 55.26662 | 3190 ft | 218 kts | 275° |
| 2026-04-24 15:08 | 25.29918 | 55.24945 | 3500 ft | 235 kts | 275° |
| 2026-04-24 15:08 | 25.30065 | 55.23060 | 3794 ft | 257 kts | 275° |
| 2026-04-24 15:08 | 25.30222 | 55.21060 | 4438 ft | 264 kts | 275° |
| 2026-04-24 15:08 | 25.30381 | 55.19035 | 5193 ft | 266 kts | 274° |
| 2026-04-24 15:09 | 25.30321 | 55.16986 | 5939 ft | 268 kts | 265° |
| 2026-04-24 15:09 | 25.30164 | 55.14924 | 6692 ft | 271 kts | 265° |
| 2026-04-24 15:09 | 25.29996 | 55.12806 | 7019 ft | 291 kts | 265° |
| 2026-04-24 15:09 | 25.29816 | 55.10513 | 7413 ft | 305 kts | 265° |
| 2026-04-24 15:10 | 25.29631 | 55.08158 | 8053 ft | 310 kts | 265° |
| 2026-04-24 15:10 | 25.29440 | 55.05708 | 8325 ft | 328 kts | 265° |
| 2026-04-24 15:10 | 25.29242 | 55.03166 | 8853 ft | 335 kts | 265° |
| 2026-04-24 15:10 | 25.29044 | 55.00598 | 9469 ft | 340 kts | 264° |
| 2026-04-24 15:11 | 25.28837 | 54.97917 | 9662 ft | 357 kts | 264° |
| 2026-04-24 15:11 | 25.28623 | 54.95149 | 10065 ft | 365 kts | 265° |
| 2026-04-24 15:11 | 25.28454 | 54.92336 | 10600 ft | 368 kts | 266° |
| 2026-04-24 15:11 | 25.28351 | 54.89496 | 11151 ft | 371 kts | 268° |
| 2026-04-24 15:12 | 25.28287 | 54.86635 | 11711 ft | 374 kts | 268° |
| 2026-04-24 15:12 | 25.28182 | 54.80823 | 12609 ft | 386 kts | 268° |
| 2026-04-24 15:12 | 25.28111 | 54.77831 | 13029 ft | 392 kts | 268° |
| 2026-04-24 15:13 | 25.28140 | 54.74804 | 13532 ft | 396 kts | 276° |
| 2026-04-24 15:13 | 25.28722 | 54.71819 | 13975 ft | 400 kts | 285° |
| 2026-04-24 15:13 | 25.29476 | 54.68845 | 14450 ft | 403 kts | 285° |
| 2026-04-24 15:13 | 25.30234 | 54.65859 | 14953 ft | 405 kts | 285° |
| 2026-04-24 15:14 | 25.30993 | 54.62855 | 15439 ft | 407 kts | 285° |
| 2026-04-24 15:14 | 25.31755 | 54.59836 | 15958 ft | 408 kts | 284° |
| 2026-04-24 15:14 | 25.32518 | 54.56808 | 16457 ft | 410 kts | 284° |
| 2026-04-24 15:14 | 25.33283 | 54.53769 | 16942 ft | 412 kts | 284° |
| 2026-04-24 15:15 | 25.34068 | 54.50719 | 17417 ft | 414 kts | 285° |
| 2026-04-24 15:15 | 25.34888 | 54.47664 | 17905 ft | 415 kts | 286° |
| 2026-04-24 15:15 | 25.35727 | 54.44603 | 18364 ft | 417 kts | 286° |
| 2026-04-24 15:15 | 25.36573 | 54.41530 | 18768 ft | 419 kts | 285° |
| 2026-04-24 15:16 | 25.37423 | 54.38439 | 19156 ft | 421 kts | 285° |
| 2026-04-24 15:16 | 25.38269 | 54.35331 | 19549 ft | 423 kts | 285° |
| 2026-04-24 15:16 | 25.39112 | 54.32202 | 19943 ft | 426 kts | 285° |
| 2026-04-24 15:16 | 25.39955 | 54.29055 | 20324 ft | 428 kts | 285° |
| 2026-04-24 15:17 | 25.40786 | 54.25910 | 21014 ft | 419 kts | 284° |
| 2026-04-24 15:17 | 25.41557 | 54.22878 | 22250 ft | 400 kts | 283° |
| 2026-04-24 15:17 | 25.42283 | 54.19948 | 23189 ft | 392 kts | 282° |
| 2026-04-24 15:17 | 25.42990 | 54.17045 | 23704 ft | 391 kts | 282° |
| 2026-04-24 15:18 | 25.43696 | 54.14135 | 24101 ft | 392 kts | 283° |
| 2026-04-24 15:18 | 25.44408 | 54.11220 | 24488 ft | 393 kts | 283° |
| 2026-04-24 15:18 | 25.45127 | 54.08292 | 24853 ft | 395 kts | 283° |
| 2026-04-24 15:18 | 25.45843 | 54.05349 | 25201 ft | 397 kts | 283° |
| 2026-04-24 15:19 | 25.46558 | 54.02384 | 25560 ft | 400 kts | 282° |
| 2026-04-24 15:19 | 25.47261 | 53.99444 | 25908 ft | 402 kts | 282° |
| 2026-04-24 15:19 | 25.47977 | 53.96446 | 26247 ft | 404 kts | 282° |
| 2026-04-24 15:19 | 25.48699 | 53.93426 | 26578 ft | 407 kts | 282° |
| 2026-04-24 15:20 | 25.49424 | 53.90395 | 26901 ft | 409 kts | 282° |
| 2026-04-24 15:20 | 25.50155 | 53.87338 | 27224 ft | 412 kts | 282° |
| 2026-04-24 15:20 | 25.50891 | 53.84265 | 27555 ft | 414 kts | 282° |
| 2026-04-24 15:20 | 25.51628 | 53.81174 | 27883 ft | 417 kts | 282° |
| 2026-04-24 15:21 | 25.52369 | 53.78067 | 28214 ft | 419 kts | 282° |
| 2026-04-24 15:21 | 25.53117 | 53.74937 | 28546 ft | 422 kts | 283° |
| 2026-04-24 15:21 | 25.53872 | 53.71791 | 28852 ft | 425 kts | 282° |
| 2026-04-24 15:21 | 25.54636 | 53.68618 | 29159 ft | 428 kts | 282° |
| 2026-04-24 15:22 | 25.55403 | 53.65425 | 29508 ft | 429 kts | 283° |
| 2026-04-24 15:22 | 25.56171 | 53.62226 | 29880 ft | 431 kts | 283° |
| 2026-04-24 15:22 | 25.56940 | 53.59014 | 30221 ft | 431 kts | 283° |
| 2026-04-24 15:23 | 25.58461 | 53.52623 | 31088 ft | 427 kts | 282° |